createdAt,value
2022-08-12T00:00:02.646Z,99884.75
2022-08-12T00:02:04.249Z,99880.47
2022-08-12T00:03:55.817Z,99883.75
2022-08-12T00:06:00.493Z,99883.75
2022-08-12T00:07:56.396Z,99876.78
2022-08-12T00:09:46.626Z,99885.56
2022-08-12T00:11:40.262Z,99882.19
2022-08-12T00:13:31.051Z,99885.69
2022-08-12T00:15:22.182Z,99882.31
2022-08-12T00:17:12.548Z,99885.06
2022-08-12T00:19:03.192Z,99889.53
2022-08-12T00:20:53.521Z,99888.69
2022-08-12T00:22:43.746Z,99885.06
2022-08-12T00:24:33.872Z,99892.13
2022-08-12T00:26:24.659Z,99891.41
2022-08-12T00:28:15.136Z,99887.38
2022-08-12T00:30:05.499Z,99891.78
2022-08-12T00:31:55.861Z,99889.94
2022-08-12T00:33:51.723Z,99889.84
2022-08-12T00:35:44.385Z,99893.31
2022-08-12T00:37:35.053Z,99891.63
2022-08-12T00:39:25.423Z,99897.84
2022-08-12T00:41:16.385Z,99891.00
2022-08-12T00:42:48.193Z,99892.03
2022-08-12T00:44:21.580Z,99889.53
2022-08-12T00:46:12.756Z,99890.59
2022-08-12T00:47:44.613Z,99891.59
2022-08-12T00:49:17.113Z,99885.63
2022-08-12T00:50:49.039Z,99887.34
2022-08-12T04:26:19.930Z,99916.78
2022-08-12T04:27:52.131Z,99924.50
2022-08-12T04:30:29.243Z,99916.53
2022-08-12T04:31:16.377Z,99915.44
2022-08-12T04:32:50.308Z,99906.50
2022-08-12T04:34:24.000Z,99915.94
2022-08-12T04:35:56.637Z,99914.88
2022-08-12T04:37:28.644Z,99915.63
2022-08-12T04:39:22.672Z,99914.38
2022-08-12T04:40:54.689Z,99923.69
2022-08-12T04:42:26.617Z,99919.16
2022-08-12T04:44:01.936Z,99921.59
2022-08-12T04:45:35.063Z,99923.03
2022-08-12T04:47:06.989Z,99918.31
2022-08-12T04:48:38.895Z,99915.59
2022-08-12T04:50:34.112Z,99918.63
2022-08-12T04:52:03.922Z,99912.22
2022-08-12T04:53:35.877Z,99910.25
2022-08-12T04:56:41.682Z,99914.72
2022-08-12T04:58:13.870Z,99923.81
2022-08-12T04:59:48.911Z,99916.19
2022-08-12T05:01:21.339Z,99920.00
2022-08-12T05:02:53.274Z,99914.19
2022-08-12T05:04:27.768Z,99912.81
2022-08-12T05:06:00.018Z,99914.09
2022-08-12T05:07:32.977Z,99913.03
2022-08-12T05:09:13.337Z,99912.59
2022-08-12T05:10:48.757Z,99904.22
2022-08-12T05:12:20.781Z,99905.34
2022-08-12T05:14:02.294Z,99904.16
2022-08-12T05:15:36.069Z,99903.69
2022-08-12T05:17:09.895Z,99900.47
2022-08-12T05:18:45.809Z,99901.75
2022-08-12T05:20:20.257Z,99896.31
2022-08-12T05:21:52.149Z,99899.28
2022-08-12T05:23:24.292Z,99903.03
2022-08-12T05:24:56.377Z,99899.84
2022-08-12T05:26:29.744Z,99900.22
2022-08-12T05:28:01.750Z,99898.69
2022-08-12T05:30:07.471Z,99900.94
2022-08-12T05:31:47.282Z,99905.53
2022-08-12T05:33:17.630Z,99909.44
2022-08-12T05:34:50.369Z,99907.25
2022-08-12T05:36:22.318Z,99900.53
2022-08-12T05:38:14.522Z,99900.06
2022-08-12T05:39:46.671Z,99899.53
2022-08-12T05:41:21.938Z,99899.94
2022-08-12T05:42:54.087Z,99903.81
2022-08-12T05:44:26.359Z,99910.31
2022-08-12T05:45:58.426Z,99905.34
2022-08-12T05:47:44.831Z,99904.63
2022-08-12T05:49:22.515Z,99907.28
2022-08-12T05:50:54.485Z,99907.41
2022-08-12T05:52:26.423Z,99897.84
2022-08-12T05:53:59.145Z,99898.78
2022-08-12T05:55:32.402Z,99898.03
2022-08-12T05:57:04.426Z,99899.09
2022-08-12T05:58:36.346Z,99901.81
2022-08-12T06:00:08.513Z,99901.06
2022-08-12T06:02:10.391Z,99898.56
2022-08-12T06:03:33.658Z,99898.53
2022-08-12T06:05:07.933Z,99900.50
2022-08-12T06:06:42.643Z,99898.31
2022-08-12T06:08:16.367Z,99893.81
2022-08-12T06:09:48.219Z,99893.44
2022-08-12T06:11:20.894Z,99893.13
2022-08-12T06:12:54.257Z,99894.31
2022-08-12T06:14:26.467Z,99895.50
2022-08-12T06:16:00.292Z,99892.34
2022-08-12T06:17:32.504Z,99894.28
2022-08-12T06:19:04.757Z,99894.59
2022-08-12T06:20:37.273Z,99888.81
2022-08-12T06:22:09.481Z,99886.38
2022-08-12T06:23:42.862Z,99888.41
2022-08-12T06:25:21.647Z,99894.97
2022-08-12T06:26:54.324Z,99881.50
2022-08-12T06:28:26.389Z,99881.25
2022-08-12T06:30:08.388Z,99877.56
2022-08-12T06:31:44.015Z,99873.97
2022-08-12T06:33:21.438Z,99878.94
2022-08-12T06:35:24.058Z,99877.66
2022-08-12T06:36:49.412Z,99882.63
2022-08-12T06:38:22.594Z,99880.28
2022-08-12T06:39:54.689Z,99877.22
2022-08-12T06:42:04.965Z,99879.19
2022-08-12T06:44:06.803Z,99878.44
2022-08-12T06:45:45.503Z,99869.84
2022-08-12T06:47:20.065Z,99869.31
2022-08-12T06:48:56.226Z,99877.34
2022-08-12T06:50:31.493Z,99867.16
2022-08-12T09:15:35.351Z,99739.94
2022-08-12T09:17:08.596Z,99743.78
2022-08-12T09:18:41.444Z,99748.69
2022-08-12T09:20:16.478Z,99743.06
2022-08-12T09:21:54.563Z,99745.72
2022-08-12T09:24:00.312Z,99746.25
2022-08-12T09:25:25.283Z,99739.25
2022-08-12T09:26:58.996Z,99740.63
2022-08-12T09:28:33.236Z,99740.19
2022-08-12T09:30:10.553Z,99739.72
2022-08-12T09:32:07.821Z,99744.38
2022-08-12T09:34:28.171Z,99744.44
2022-08-12T09:35:42.896Z,99743.38
2022-08-12T09:37:20.036Z,99745.91
2022-08-12T09:38:58.866Z,99748.72
2022-08-12T09:42:07.686Z,99740.56
2022-08-12T09:42:54.355Z,99739.19
2022-08-12T09:45:18.305Z,99748.38
2022-08-12T09:46:48.764Z,99750.22
2022-08-12T09:48:21.965Z,99747.03
2022-08-12T09:49:58.699Z,99746.72
2022-08-12T09:51:38.282Z,99741.75
2022-08-12T09:53:29.089Z,99744.97
2022-08-12T09:55:03.661Z,99741.47
2022-08-12T09:56:58.399Z,99735.97
2022-08-12T09:58:58.936Z,99735.22
2022-08-12T10:00:29.249Z,99743.44
2022-08-12T10:02:43.866Z,99738.50
2022-08-12T10:04:03.936Z,99734.97
2022-08-12T10:06:26.487Z,99731.63
2022-08-12T10:07:40.631Z,99726.06
2022-08-12T10:09:14.497Z,99721.03
2022-08-12T10:11:07.754Z,99727.66
2022-08-12T10:13:09.657Z,99721.97
2022-08-12T10:14:49.999Z,99723.63
2022-08-12T10:16:38.724Z,99720.53
2022-08-12T10:18:13.188Z,99718.06
2022-08-12T10:19:51.895Z,99722.41
2022-08-12T10:21:39.095Z,99720.28
2022-08-12T10:23:12.565Z,99713.19
2022-08-12T10:25:17.156Z,99714.03
2022-08-12T10:27:14.144Z,99714.78
2022-08-12T10:30:01.376Z,99714.72
2022-08-12T10:31:01.387Z,99714.78
2022-08-12T10:32:44.687Z,99708.00
2022-08-12T10:34:26.069Z,99709.06
2022-08-12T10:36:00.417Z,99714.19
2022-08-12T10:38:37.835Z,99703.75
2022-08-12T10:40:01.212Z,99707.44
2022-08-12T10:41:57.855Z,99702.28
2022-08-12T10:43:54.072Z,99697.56
2022-08-12T10:45:30.334Z,99703.28
2022-08-12T10:47:25.905Z,99702.41
2022-08-12T10:49:06.987Z,99712.06
2022-08-12T10:51:01.539Z,99696.34
2022-08-12T10:52:39.350Z,99694.81
2022-08-12T10:54:14.616Z,99697.03
2022-08-12T10:55:48.987Z,99691.59
2022-08-12T10:57:50.354Z,99681.34
2022-08-12T11:00:31.744Z,99685.75
2022-08-12T11:04:14.279Z,99685.59
2022-08-12T11:04:27.481Z,99685.75
2022-08-12T11:07:05.357Z,99684.69
2022-08-12T11:07:05.357Z,99683.16
2022-08-12T11:08:46.488Z,99688.06
2022-08-12T11:10:19.950Z,99689.38
2022-08-12T11:12:35.094Z,99678.31
2022-08-12T11:13:53.102Z,99669.75
2022-08-12T11:16:19.827Z,99672.28
2022-08-12T11:17:42.845Z,99670.47
2022-08-12T11:19:17.697Z,99666.25
2022-08-12T11:20:57.970Z,99669.94
2022-08-12T11:22:30.575Z,99657.94
2022-08-12T11:24:05.695Z,99666.31
2022-08-12T11:25:55.927Z,99660.66
2022-08-12T11:27:31.196Z,99649.81
2022-08-12T11:29:05.896Z,99657.03
2022-08-12T11:30:54.934Z,99651.19
2022-08-12T11:32:27.700Z,99653.84
2022-08-12T11:34:05.996Z,99644.66
2022-08-12T11:35:57.681Z,99648.56
2022-08-12T11:37:57.998Z,99650.59
2022-08-12T11:41:27.864Z,99641.41
2022-08-12T11:43:19.176Z,99648.25
2022-08-12T11:44:52.817Z,99648.59
2022-08-12T11:46:25.141Z,99641.44
2022-08-12T11:48:00.056Z,99642.56
2022-08-12T11:49:32.850Z,99639.22
2022-08-12T11:51:06.380Z,99644.41
2022-08-12T11:52:56.809Z,99643.44
2022-08-12T11:54:30.754Z,99633.72
2022-08-12T11:56:05.441Z,99626.03
2022-08-12T11:58:19.762Z,99629.56
2022-08-12T12:02:02.129Z,99618.31
2022-08-12T12:03:44.012Z,99626.69
2022-08-12T12:05:20.284Z,99607.31
2022-08-12T12:06:54.395Z,99619.16
2022-08-12T12:08:38.697Z,99620.53
2022-08-12T12:10:20.685Z,99627.03
2022-08-12T12:11:53.389Z,99612.66
2022-08-12T12:14:07.271Z,99611.31
2022-08-12T12:15:25.168Z,99617.84
2022-08-12T12:17:10.368Z,99622.03
2022-08-12T12:18:43.186Z,99617.66
2022-08-12T12:20:15.793Z,99619.00
2022-08-12T12:21:49.567Z,99614.31
2022-08-12T12:23:28.806Z,99618.00
2022-08-12T12:25:13.285Z,99614.00
2022-08-12T12:26:46.342Z,99612.31
2022-08-12T12:28:37.906Z,99606.81
2022-08-12T12:30:18.007Z,99611.34
2022-08-12T12:32:11.379Z,99615.84
2022-08-12T12:33:57.567Z,99617.00
2022-08-12T12:36:19.968Z,99612.00
2022-08-12T12:37:58.837Z,99611.81
2022-08-12T12:39:16.863Z,99607.25
2022-08-12T12:40:50.729Z,99603.25
2022-08-12T12:42:45.428Z,99602.56
2022-08-12T12:44:25.684Z,99591.06
2022-08-12T12:46:02.992Z,99596.06
2022-08-12T12:47:35.283Z,99599.25
2022-08-12T12:49:11.213Z,99588.59
2022-08-12T12:51:12.914Z,99590.94
2022-08-12T12:52:45.272Z,99591.59
2022-08-12T12:54:18.890Z,99596.13
2022-08-12T12:55:53.835Z,99589.75
2022-08-12T12:57:54.170Z,99588.91
2022-08-12T12:59:56.391Z,99592.78
2022-08-12T13:01:28.066Z,99581.91
2022-08-12T13:03:04.227Z,99581.41
2022-08-12T13:04:37.888Z,99576.56
2022-08-12T13:06:10.571Z,99583.91
2022-08-12T13:07:49.311Z,99573.22
2022-08-12T13:09:27.415Z,99575.56
2022-08-12T13:11:09.191Z,99573.38
2022-08-12T13:12:43.393Z,99577.91
2022-08-12T13:14:28.659Z,99576.22
2022-08-12T13:16:04.656Z,99568.84
2022-08-12T13:18:02.997Z,99564.34
2022-08-12T13:19:45.323Z,99567.84
2022-08-12T13:21:32.868Z,99558.31
2022-08-12T13:23:35.673Z,99563.16
2022-08-12T13:25:01.961Z,99563.81
2022-08-12T13:26:35.538Z,99556.09
2022-08-12T13:28:22.321Z,99563.44
2022-08-12T13:30:03.888Z,99556.06
2022-08-12T13:32:02.005Z,99551.69
2022-08-12T13:33:48.531Z,99547.16
2022-08-12T13:35:33.691Z,99557.38
2022-08-12T13:37:18.132Z,99551.81
2022-08-12T13:38:54.663Z,99554.88
2022-08-12T13:40:29.088Z,99553.13
2022-08-12T13:42:01.289Z,99558.31
2022-08-12T13:43:40.232Z,99550.50
2022-08-12T13:45:14.258Z,99559.19
2022-08-12T13:46:58.271Z,99552.16
2022-08-12T13:48:37.536Z,99554.31
2022-08-12T13:50:10.255Z,99547.31
2022-08-12T13:51:54.203Z,99536.47
2022-08-12T13:53:40.254Z,99531.94
2022-08-12T13:55:22.122Z,99538.47
2022-08-12T13:57:03.484Z,99534.78
2022-08-12T13:58:52.494Z,99544.47
2022-08-12T14:00:34.167Z,99533.78
2022-08-12T14:02:13.763Z,99532.09
2022-08-12T14:03:50.089Z,99530.06
2022-08-12T14:05:31.287Z,99529.91
2022-08-12T14:07:11.467Z,99525.56
2022-08-12T14:08:44.718Z,99531.22
2022-08-12T14:10:50.645Z,99530.72
2022-08-12T14:12:24.217Z,99530.44
2022-08-12T14:14:04.301Z,99527.75
2022-08-12T14:15:47.776Z,99528.59
2022-08-12T14:17:20.286Z,99529.13
2022-08-12T14:18:55.222Z,99528.44
2022-08-12T14:20:27.778Z,99527.75
2022-08-12T14:22:05.059Z,99527.38
2022-08-12T14:24:04.275Z,99527.91
2022-08-12T14:25:40.817Z,99533.41
2022-08-12T14:27:13.175Z,99534.09
2022-08-12T14:28:57.785Z,99533.06
2022-08-12T14:30:34.161Z,99528.06
2022-08-12T14:32:07.981Z,99525.88
2022-08-12T14:33:50.610Z,99526.22
2022-08-12T14:35:24.511Z,99521.56
2022-08-12T14:36:57.680Z,99517.38
2022-08-12T14:38:32.377Z,99522.56
2022-08-12T14:40:05.447Z,99515.72
2022-08-12T14:41:48.473Z,99514.72
2022-08-12T14:43:59.318Z,99512.25
2022-08-12T14:45:45.171Z,99509.06
2022-08-12T14:47:21.070Z,99509.72
2022-08-12T14:48:55.052Z,99509.06
2022-08-12T14:50:58.505Z,99510.56
2022-08-12T14:53:12.214Z,99506.34
2022-08-12T14:57:59.950Z,99502.84
2022-08-12T14:59:57.763Z,99497.00
2022-08-12T15:01:41.893Z,99504.34
2022-08-12T15:03:15.825Z,99504.34
2022-08-12T15:05:03.564Z,99504.34
2022-08-12T15:06:39.332Z,99508.03
2022-08-12T15:08:28.301Z,99510.03
2022-08-12T15:10:01.634Z,99506.00
2022-08-12T15:11:54.984Z,99509.00
2022-08-12T15:13:27.146Z,99503.63
2022-08-12T15:15:00.290Z,99504.66
2022-08-12T15:16:32.753Z,99501.97
2022-08-12T15:18:07.054Z,99501.31
2022-08-12T15:20:31.285Z,99504.97
2022-08-12T15:22:39.648Z,99501.94
2022-08-12T15:23:45.716Z,99499.97
2022-08-12T15:25:27.876Z,99490.56
2022-08-12T15:27:01.319Z,99489.06
2022-08-12T15:28:53.969Z,99493.91
2022-08-12T15:30:30.359Z,99490.03
2022-08-12T15:32:10.643Z,99489.03
2022-08-12T15:33:50.610Z,99491.34
2022-08-12T15:35:24.905Z,99477.66
2022-08-12T15:36:59.166Z,99489.50
2022-08-12T15:38:32.058Z,99485.28
2022-08-12T15:40:07.041Z,99485.78
2022-08-12T15:41:50.081Z,99490.59
2022-08-12T15:43:51.795Z,99488.13
2022-08-12T15:45:21.300Z,99491.28
2022-08-12T15:46:56.083Z,99496.75
2022-08-12T15:48:30.507Z,99492.06
2022-08-12T15:50:03.036Z,99488.00
2022-08-12T15:51:58.803Z,99499.47
2022-08-12T15:53:54.626Z,99488.06
2022-08-12T15:55:33.429Z,99487.88
2022-08-12T15:57:08.339Z,99484.00
2022-08-12T15:58:43.548Z,99486.16
2022-08-12T16:00:31.527Z,99481.63
2022-08-12T16:02:05.005Z,99479.44
2022-08-12T16:03:45.977Z,99470.06
2022-08-12T16:06:11.079Z,99483.00
2022-08-12T16:07:29.864Z,99481.78
2022-08-12T16:09:05.169Z,99473.41
2022-08-12T16:10:42.884Z,99467.56
2022-08-12T16:12:16.419Z,99473.34
2022-08-12T16:13:54.618Z,99478.16
2022-08-12T16:15:29.542Z,99472.13
2022-08-12T16:17:09.063Z,99468.28
2022-08-12T16:18:47.784Z,99478.41
2022-08-12T16:20:33.208Z,99479.72
2022-08-12T16:22:11.435Z,99475.81
2022-08-12T16:23:55.321Z,99469.13
2022-08-12T16:26:02.751Z,99477.72
2022-08-12T16:27:30.280Z,99478.34
2022-08-12T16:29:15.225Z,99477.00
2022-08-12T16:30:50.179Z,99482.03
2022-08-12T16:32:24.193Z,99485.31
2022-08-12T16:34:04.314Z,99489.03
2022-08-12T16:35:45.838Z,99486.44
2022-08-12T16:37:21.593Z,99492.97
2022-08-12T16:39:05.358Z,99491.84
2022-08-12T16:40:39.754Z,99498.31
2022-08-12T16:42:23.114Z,99488.41
2022-08-12T16:44:01.359Z,99488.00
2022-08-12T16:46:04.411Z,99490.56
2022-08-12T16:47:58.421Z,99483.59
2022-08-12T16:49:25.268Z,99495.09
2022-08-12T16:50:58.470Z,99484.91
2022-08-12T16:52:30.890Z,99489.28
2022-08-12T16:54:03.725Z,99493.19
2022-08-12T16:55:42.173Z,99493.47
2022-08-12T16:57:15.254Z,99481.63
2022-08-12T16:58:48.727Z,99484.41
2022-08-12T17:00:25.375Z,99488.19
2022-08-12T17:01:58.593Z,99487.75
2022-08-12T17:03:38.135Z,99490.41
2022-08-12T17:05:19.812Z,99488.31
2022-08-12T17:06:54.005Z,99487.78
2022-08-12T17:08:28.920Z,99486.66
2022-08-12T17:10:01.950Z,99485.84
2022-08-12T17:11:34.850Z,99490.88
2022-08-12T17:13:11.347Z,99493.53
2022-08-12T17:14:47.343Z,99492.56
2022-08-12T17:16:30.017Z,99493.25
2022-08-12T17:18:39.490Z,99494.88
2022-08-12T17:20:34.948Z,99496.56
2022-08-12T17:22:02.048Z,99496.69
2022-08-12T17:23:48.335Z,99501.03
2022-08-12T17:25:26.585Z,99504.34
2022-08-12T17:27:09.586Z,99501.66
2022-08-12T17:28:52.372Z,99499.13
2022-08-12T17:30:28.076Z,99501.59
2022-08-12T17:32:03.158Z,99503.22
2022-08-12T17:33:39.179Z,99507.47
2022-08-12T17:35:36.802Z,99505.34
2022-08-12T17:37:10.759Z,99508.38
2022-08-12T17:38:50.837Z,99508.44
2022-08-12T17:40:35.939Z,99506.00
2022-08-12T17:42:32.840Z,99513.28
2022-08-12T17:44:04.045Z,99505.38
2022-08-12T17:45:47.366Z,99506.16
2022-08-12T17:47:24.931Z,99510.66
2022-08-12T17:49:19.506Z,99511.44
2022-08-12T17:51:09.307Z,99514.81
2022-08-12T17:52:47.663Z,99515.56
2022-08-12T17:54:26.492Z,99519.44
2022-08-12T17:55:58.984Z,99521.09
2022-08-12T17:57:31.462Z,99517.16
2022-08-12T17:59:04.100Z,99517.53
2022-08-12T18:00:44.062Z,99517.19
2022-08-12T18:02:25.562Z,99520.44
2022-08-12T18:04:21.595Z,99525.38
2022-08-12T18:06:00.773Z,99519.00
2022-08-12T18:07:35.721Z,99516.25
2022-08-12T18:09:09.531Z,99527.19
2022-08-12T18:11:11.954Z,99528.59
2022-08-12T18:12:52.266Z,99527.13
2022-08-12T18:16:06.709Z,99532.63
2022-08-12T18:17:47.162Z,99533.09
2022-08-12T18:19:20.024Z,99526.63
2022-08-12T18:20:52.703Z,99534.03
2022-08-12T18:22:30.391Z,99533.31
2022-08-12T18:24:04.019Z,99539.91
2022-08-12T18:26:17.682Z,99538.56
2022-08-12T18:27:50.499Z,99533.03
2022-08-12T18:29:43.483Z,99539.00
2022-08-12T18:31:18.257Z,99542.81
2022-08-12T18:32:59.459Z,99537.25
2022-08-12T18:34:38.586Z,99540.09
2022-08-12T18:36:13.008Z,99542.97
2022-08-12T18:37:46.580Z,99544.34
2022-08-12T18:39:20.321Z,99551.44
2022-08-12T18:41:21.722Z,99549.88
2022-08-12T18:42:57.136Z,99558.25
2022-08-12T18:44:33.378Z,99556.88
2022-08-12T18:46:11.310Z,99561.53
2022-08-12T18:47:49.790Z,99549.84
2022-08-12T18:49:39.300Z,99561.56
2022-08-12T18:51:21.862Z,99559.47
2022-08-12T18:53:08.060Z,99559.19
2022-08-12T18:55:08.106Z,99560.56
2022-08-12T18:56:41.144Z,99565.34
2022-08-12T18:58:15.138Z,99557.63
2022-08-12T19:00:01.449Z,99569.16
2022-08-12T19:02:20.926Z,99567.84
2022-08-12T19:03:39.489Z,99572.50
2022-08-12T19:05:14.577Z,99573.53
2022-08-12T19:06:47.297Z,99573.75
2022-08-12T19:08:24.979Z,99567.94
2022-08-12T19:09:59.966Z,99576.91
2022-08-12T19:11:56.605Z,99569.34
2022-08-12T19:13:49.381Z,99574.81
2022-08-12T19:15:21.961Z,99566.38
2022-08-12T19:16:58.261Z,99569.13
2022-08-12T19:18:32.968Z,99571.25
2022-08-12T19:20:07.473Z,99572.72
2022-08-12T19:21:56.671Z,99572.50
2022-08-12T19:23:35.001Z,99574.78
2022-08-12T19:26:01.241Z,99579.41
2022-08-12T19:27:21.937Z,99573.63
2022-08-12T19:28:57.974Z,99573.81
2022-08-12T19:30:52.570Z,99570.44
2022-08-12T19:32:27.141Z,99568.81
2022-08-12T19:34:26.113Z,99569.16
2022-08-12T19:36:07.421Z,99566.50
2022-08-12T19:38:06.312Z,99575.16
2022-08-12T19:40:08.108Z,99565.22
2022-08-12T19:41:43.004Z,99567.22
2022-08-12T19:43:41.006Z,99564.16
2022-08-12T19:45:22.220Z,99569.50
2022-08-12T19:46:55.868Z,99576.75
2022-08-12T19:48:32.672Z,99575.66
2022-08-12T19:50:06.875Z,99586.59
2022-08-12T19:51:47.994Z,99590.44
2022-08-12T19:53:25.288Z,99580.00
2022-08-12T19:55:01.543Z,99590.25
2022-08-12T19:56:35.028Z,99586.50
2022-08-12T19:58:08.258Z,99581.59
2022-08-12T20:00:03.744Z,99581.03
2022-08-12T20:02:01.511Z,99576.91
2022-08-12T20:03:39.246Z,99582.25
2022-08-12T20:06:03.873Z,99576.16
2022-08-12T20:07:23.134Z,99586.69
2022-08-12T20:08:57.220Z,99578.06
2022-08-12T20:10:35.064Z,99577.94
2022-08-12T20:12:18.040Z,99582.56
2022-08-12T20:14:00.318Z,99574.00
2022-08-12T20:15:43.241Z,99575.88
2022-08-12T20:17:23.523Z,99571.69
2022-08-12T20:19:01.573Z,99569.88
2022-08-12T20:20:35.428Z,99576.94
2022-08-12T20:22:08.828Z,99581.31
2022-08-12T20:23:59.597Z,99582.19
2022-08-12T20:25:52.648Z,99582.19
2022-08-12T20:28:04.825Z,99579.19
2022-08-12T20:29:21.862Z,99578.31
2022-08-12T20:30:59.587Z,99575.59
2022-08-12T20:32:47.854Z,99575.41
2022-08-12T20:34:22.665Z,99574.47
2022-08-12T20:36:06.883Z,99570.72
2022-08-12T20:38:06.178Z,99571.47
2022-08-12T20:39:56.603Z,99571.16
2022-08-12T20:41:32.568Z,99569.09
2022-08-12T20:43:06.537Z,99575.03
2022-08-12T20:44:41.173Z,99570.50
2022-08-12T20:46:14.063Z,99576.53
2022-08-12T20:47:55.792Z,99576.53
2022-08-12T20:49:40.181Z,99562.44
2022-08-12T20:51:18.983Z,99571.09
2022-08-12T20:52:51.565Z,99569.19
2022-08-12T20:54:32.510Z,99560.34
2022-08-12T20:56:30.615Z,99560.25
2022-08-12T20:58:09.981Z,99556.81
2022-08-12T20:59:48.094Z,99557.72
2022-08-12T21:01:28.827Z,99559.22
2022-08-12T21:03:25.377Z,99557.34
2022-08-12T21:05:19.758Z,99551.06
2022-08-12T21:07:08.201Z,99550.75
2022-08-12T21:08:42.340Z,99553.47
2022-08-12T21:10:14.818Z,99555.28
2022-08-12T21:11:50.817Z,99547.38
2022-08-12T21:13:23.931Z,99551.69
2022-08-12T21:15:16.574Z,99551.59
2022-08-12T21:16:54.924Z,99554.31
2022-08-12T21:18:28.982Z,99551.81
2022-08-12T21:20:06.783Z,99552.56
2022-08-12T21:21:50.546Z,99546.53
2022-08-12T21:23:23.563Z,99559.78
2022-08-12T21:24:56.508Z,99550.94
2022-08-12T21:26:29.103Z,99552.63
2022-08-12T21:28:01.383Z,99558.81
2022-08-12T21:29:40.062Z,99544.75
2022-08-12T21:32:35.918Z,99551.59
2022-08-12T21:33:16.930Z,99541.06
2022-08-12T21:34:49.647Z,99542.56
2022-08-12T21:36:34.841Z,99541.50
2022-08-12T21:38:08.508Z,99543.22
2022-08-12T21:39:40.583Z,99536.91
2022-08-12T21:41:24.578Z,99531.44
2022-08-12T21:42:56.617Z,99529.53
2022-08-12T21:45:46.319Z,99528.63
2022-08-12T21:46:34.727Z,99532.91
2022-08-12T21:48:11.872Z,99528.53
2022-08-12T21:49:55.680Z,99529.53
2022-08-12T21:51:49.229Z,99530.28
2022-08-12T21:53:22.971Z,99528.63
2022-08-12T21:55:19.930Z,99528.63
2022-08-12T21:56:53.645Z,99536.59
2022-08-12T21:58:26.093Z,99532.28
2022-08-12T21:59:58.310Z,99522.78
2022-08-12T22:01:30.517Z,99520.28
2022-08-12T22:04:02.727Z,99526.38
2022-08-12T22:05:39.556Z,99524.81
2022-08-12T22:07:18.589Z,99528.25
2022-08-12T22:08:59.425Z,99525.53
2022-08-12T22:10:34.152Z,99523.09
2022-08-12T22:12:28.177Z,99523.19
2022-08-12T22:14:06.973Z,99522.47
2022-08-12T22:15:40.721Z,99505.00
2022-08-12T22:17:50.527Z,99509.09
2022-08-12T22:19:26.805Z,99509.94
2022-08-12T22:20:59.063Z,99508.91
2022-08-12T22:22:42.558Z,99506.69
2022-08-12T22:24:26.700Z,99508.03
2022-08-12T22:26:05.404Z,99510.66
2022-08-12T22:28:01.980Z,99513.28
2022-08-12T22:29:59.515Z,99516.00
2022-08-12T22:31:33.771Z,99516.00
2022-08-12T22:33:15.753Z,99514.13
2022-08-12T22:35:10.325Z,99512.44
2022-08-12T22:36:55.839Z,99502.75
2022-08-12T22:38:33.769Z,99513.19
2022-08-12T22:40:06.263Z,99504.25
2022-08-12T22:41:57.755Z,99501.63
2022-08-12T22:43:58.955Z,99501.44
2022-08-12T22:45:56.453Z,99496.03
2022-08-12T22:47:53.535Z,99491.75
2022-08-12T22:49:37.124Z,99492.38
2022-08-12T22:51:24.060Z,99496.69
2022-08-12T22:53:15.679Z,99486.19
2022-08-12T22:55:02.561Z,99485.22
2022-08-12T22:56:36.519Z,99489.66
2022-08-12T22:58:12.405Z,99493.00
2022-08-12T22:59:55.305Z,99486.09
2022-08-12T23:02:00.936Z,99487.75
2022-08-12T23:03:49.226Z,99485.13
2022-08-12T23:05:16.971Z,99486.09
2022-08-12T23:06:51.615Z,99487.56
2022-08-12T23:08:29.609Z,99483.22
2022-08-12T23:10:02.444Z,99486.59
2022-08-12T23:11:40.563Z,99487.44
2022-08-12T23:13:43.776Z,99483.78
2022-08-12T23:15:16.438Z,99487.16
2022-08-12T23:16:52.384Z,99479.28
2022-08-12T23:18:33.317Z,99477.56
2022-08-12T23:20:06.232Z,99479.38
2022-08-12T23:22:05.131Z,99481.78
2022-08-12T23:24:09.623Z,99477.25
2022-08-12T23:25:55.178Z,99470.22
2022-08-12T23:27:51.213Z,99466.84
2022-08-12T23:29:30.175Z,99468.53
2022-08-12T23:31:15.713Z,99478.00
2022-08-12T23:32:54.063Z,99473.38
2022-08-12T23:34:38.401Z,99453.06
2022-08-12T23:36:12.653Z,99470.00
2022-08-12T23:37:53.908Z,99468.53
2022-08-12T23:40:15.582Z,99473.06
2022-08-12T23:41:25.643Z,99466.13
2022-08-12T23:43:01.520Z,99461.13
2022-08-12T23:44:36.264Z,99470.81
2022-08-12T23:46:19.415Z,99466.53
2022-08-12T23:47:55.945Z,99457.66
2022-08-12T23:49:57.571Z,99456.75
2022-08-12T23:51:27.073Z,99464.22
2022-08-12T23:53:17.005Z,99460.72
2022-08-12T23:54:58.280Z,99459.91
2022-08-12T23:56:34.316Z,99461.59
2022-08-12T23:58:21.510Z,99459.91
